sensor_id;sensor_type;location;lat;lon;timestamp;pressure;altitude;pressure_sealevel;temperature;humidity
26865;BME280;40618;51.166;10.322;2022-09-28T00:00:23;95585.75;;;6.75;79.31
26865;BME280;40618;51.166;10.322;2022-09-28T00:02:49;95588.56;;;6.69;79.61
26865;BME280;40618;51.166;10.322;2022-09-28T00:05:15;95579.97;;;6.70;79.38
26865;BME280;40618;51.166;10.322;2022-09-28T00:07:41;95574.81;;;6.70;79.62
26865;BME280;40618;51.166;10.322;2022-09-28T00:10:08;95565.28;;;6.72;79.13
26865;BME280;40618;51.166;10.322;2022-09-28T00:12:33;95566.19;;;6.71;79.46
26865;BME280;40618;51.166;10.322;2022-09-28T00:14:59;95564.47;;;6.72;79.16
26865;BME280;40618;51.166;10.322;2022-09-28T00:17:25;95559.31;;;6.72;79.66
26865;BME280;40618;51.166;10.322;2022-09-28T00:19:50;95559.31;;;6.72;79.55
26865;BME280;40618;51.166;10.322;2022-09-28T00:22:17;95554.25;;;6.70;79.35
26865;BME280;40618;51.166;10.322;2022-09-28T00:24:42;95546.38;;;6.73;79.57
26865;BME280;40618;51.166;10.322;2022-09-28T00:27:09;95545.25;;;6.79;79.46
26865;BME280;40618;51.166;10.322;2022-09-28T00:29:36;95526.97;;;6.85;79.31
26865;BME280;40618;51.166;10.322;2022-09-28T00:32:09;95527.88;;;6.84;79.50
26865;BME280;40618;51.166;10.322;2022-09-28T00:34:39;95527.97;;;6.83;79.21
26865;BME280;40618;51.166;10.322;2022-09-28T00:37:11;95528.78;;;6.83;79.34
26865;BME280;40618;51.166;10.322;2022-09-28T00:39:38;95525.31;;;6.84;79.24
26865;BME280;40618;51.166;10.322;2022-09-28T00:42:14;95517.59;;;6.84;79.36
26865;BME280;40618;51.166;10.322;2022-09-28T00:44:55;95517.59;;;6.84;79.26
26865;BME280;40618;51.166;10.322;2022-09-28T00:50:30;95505.69;;;6.82;79.46
26865;BME280;40618;51.166;10.322;2022-09-28T00:53:07;95509.94;;;6.83;79.32
26865;BME280;40618;51.166;10.322;2022-09-28T00:55:56;95511.63;;;6.84;79.38
26865;BME280;40618;51.166;10.322;2022-09-28T00:58:42;95509.06;;;6.84;79.45
26865;BME280;40618;51.166;10.322;2022-09-28T01:01:10;95498.59;;;6.87;79.69
26865;BME280;40618;51.166;10.322;2022-09-28T01:03:37;95497.78;;;6.86;79.04
26865;BME280;40618;51.166;10.322;2022-09-28T01:06:14;95495.06;;;6.89;79.65
26865;BME280;40618;51.166;10.322;2022-09-28T01:08:44;95484.84;;;6.88;79.28
26865;BME280;40618;51.166;10.322;2022-09-28T01:11:11;95482.13;;;6.91;79.86
26865;BME280;40618;51.166;10.322;2022-09-28T01:13:36;95473.59;;;6.90;79.22
26865;BME280;40618;51.166;10.322;2022-09-28T01:16:42;95480.53;;;6.88;79.61
26865;BME280;40618;51.166;10.322;2022-09-28T01:19:46;95470.31;;;6.87;79.51
26865;BME280;40618;51.166;10.322;2022-09-28T01:25:39;95457.53;;;6.85;79.23
26865;BME280;40618;51.166;10.322;2022-09-28T01:28:17;95454.94;;;6.85;79.19
26865;BME280;40618;51.166;10.322;2022-09-28T01:30:52;95457.44;;;6.87;79.22
26865;BME280;40618;51.166;10.322;2022-09-28T01:33:32;95455.78;;;6.86;79.63
26865;BME280;40618;51.166;10.322;2022-09-28T01:36:14;95449.88;;;6.84;79.49
26865;BME280;40618;51.166;10.322;2022-09-28T01:38:54;95455.94;;;6.83;79.27
26865;BME280;40618;51.166;10.322;2022-09-28T01:41:23;95449.81;;;6.85;79.64
26865;BME280;40618;51.166;10.322;2022-09-28T01:43:54;95442.97;;;6.84;79.42
26865;BME280;40618;51.166;10.322;2022-09-28T01:46:26;95439.44;;;6.87;79.73
26865;BME280;40618;51.166;10.322;2022-09-28T01:48:58;95434.22;;;6.88;79.58
26865;BME280;40618;51.166;10.322;2022-09-28T01:51:34;95442.75;;;6.89;79.47
26865;BME280;40618;51.166;10.322;2022-09-28T01:54:12;95438.47;;;6.89;79.30
26865;BME280;40618;51.166;10.322;2022-09-28T02:00:08;95434.00;;;6.93;79.31
26865;BME280;40618;51.166;10.322;2022-09-28T02:03:39;95425.44;;;6.92;79.68
26865;BME280;40618;51.166;10.322;2022-09-28T02:06:10;95419.41;;;6.93;79.47
26865;BME280;40618;51.166;10.322;2022-09-28T02:08:57;95416.66;;;6.97;79.36
26865;BME280;40618;51.166;10.322;2022-09-28T02:11:28;95415.00;;;6.95;79.49
26865;BME280;40618;51.166;10.322;2022-09-28T02:14:02;95420.28;;;6.92;79.26
26865;BME280;40618;51.166;10.322;2022-09-28T02:16:42;95406.72;;;6.89;79.17
26865;BME280;40618;51.166;10.322;2022-09-28T02:19:21;95408.56;;;6.87;79.65
26865;BME280;40618;51.166;10.322;2022-09-28T02:22:18;95396.53;;;6.87;79.68
26865;BME280;40618;51.166;10.322;2022-09-28T02:24:55;95395.63;;;6.88;79.09
26865;BME280;40618;51.166;10.322;2022-09-28T02:27:33;95393.06;;;6.88;79.59
26865;BME280;40618;51.166;10.322;2022-09-28T02:30:00;95391.00;;;6.77;79.06
26865;BME280;40618;51.166;10.322;2022-09-28T02:32:29;95382.47;;;6.77;79.41
26865;BME280;40618;51.166;10.322;2022-09-28T02:34:57;95392.66;;;6.78;79.64
26865;BME280;40618;51.166;10.322;2022-09-28T02:37:24;95384.88;;;6.80;79.50
26865;BME280;40618;51.166;10.322;2022-09-28T02:39:51;95382.22;;;6.82;79.61
26865;BME280;40618;51.166;10.322;2022-09-28T02:42:23;95383.91;;;6.83;79.37
26865;BME280;40618;51.166;10.322;2022-09-28T02:45:22;95377.84;;;6.84;79.52
26865;BME280;40618;51.166;10.322;2022-09-28T02:51:28;95379.50;;;6.85;79.84
26865;BME280;40618;51.166;10.322;2022-09-28T02:54:38;95369.53;;;6.78;79.29
26865;BME280;40618;51.166;10.322;2022-09-28T03:00:44;95372.84;;;6.81;79.78
26865;BME280;40618;51.166;10.322;2022-09-28T03:03:49;95363.69;;;6.75;79.77
26865;BME280;40618;51.166;10.322;2022-09-28T03:06:32;95362.94;;;6.73;79.34
26865;BME280;40618;51.166;10.322;2022-09-28T03:09:23;95364.59;;;6.74;80.03
26865;BME280;40618;51.166;10.322;2022-09-28T03:11:54;95359.50;;;6.72;79.74
26865;BME280;40618;51.166;10.322;2022-09-28T03:14:22;95357.09;;;6.69;79.63
26865;BME280;40618;51.166;10.322;2022-09-28T03:16:48;95351.28;;;6.66;79.72
26865;BME280;40618;51.166;10.322;2022-09-28T03:19:20;95348.91;;;6.61;79.82
26865;BME280;40618;51.166;10.322;2022-09-28T03:21:49;95347.75;;;6.49;79.75
26865;BME280;40618;51.166;10.322;2022-09-28T03:24:14;95350.72;;;6.41;79.98
26865;BME280;40618;51.166;10.322;2022-09-28T03:26:40;95346.91;;;6.31;80.33
26865;BME280;40618;51.166;10.322;2022-09-28T03:29:06;95346.22;;;6.28;80.09
26865;BME280;40618;51.166;10.322;2022-09-28T03:31:31;95345.53;;;6.24;80.00
26865;BME280;40618;51.166;10.322;2022-09-28T03:33:57;95341.13;;;6.26;80.03
26865;BME280;40618;51.166;10.322;2022-09-28T03:36:23;95344.63;;;6.25;80.24
26865;BME280;40618;51.166;10.322;2022-09-28T03:38:51;95338.56;;;6.26;80.59
26865;BME280;40618;51.166;10.322;2022-09-28T03:41:20;95340.38;;;6.24;80.01
26865;BME280;40618;51.166;10.322;2022-09-28T03:43:46;95333.41;;;6.26;80.55
26865;BME280;40618;51.166;10.322;2022-09-28T03:46:12;95332.44;;;6.29;80.22
26865;BME280;40618;51.166;10.322;2022-09-28T03:48:38;95325.50;;;6.31;80.53
26865;BME280;40618;51.166;10.322;2022-09-28T03:51:06;95321.19;;;6.31;80.79
26865;BME280;40618;51.166;10.322;2022-09-28T03:53:35;95329.69;;;6.33;80.38
26865;BME280;40618;51.166;10.322;2022-09-28T03:56:14;95316.75;;;6.35;80.97
26865;BME280;40618;51.166;10.322;2022-09-28T03:58:40;95310.63;;;6.37;81.39
26865;BME280;40618;51.166;10.322;2022-09-28T04:01:09;95310.47;;;6.40;80.72
26865;BME280;40618;51.166;10.322;2022-09-28T04:03:42;95311.25;;;6.42;80.92
26865;BME280;40618;51.166;10.322;2022-09-28T04:06:08;95304.38;;;6.43;81.05
26865;BME280;40618;51.166;10.322;2022-09-28T04:08:34;95300.03;;;6.43;81.17
26865;BME280;40618;51.166;10.322;2022-09-28T04:11:00;95294.91;;;6.43;80.77
26865;BME280;40618;51.166;10.322;2022-09-28T04:13:27;95296.56;;;6.44;80.91
26865;BME280;40618;51.166;10.322;2022-09-28T04:15:56;95291.34;;;6.46;80.81
26865;BME280;40618;51.166;10.322;2022-09-28T04:18:23;95294.69;;;6.48;80.96
26865;BME280;40618;51.166;10.322;2022-09-28T04:21:04;95284.50;;;6.47;81.12
26865;BME280;40618;51.166;10.322;2022-09-28T04:23:32;95279.56;;;6.42;81.11
26865;BME280;40618;51.166;10.322;2022-09-28T04:25:59;95277.84;;;6.42;80.97
26865;BME280;40618;51.166;10.322;2022-09-28T04:28:25;95276.81;;;6.45;81.13
26865;BME280;40618;51.166;10.322;2022-09-28T04:31:10;95274.13;;;6.48;80.96
26865;BME280;40618;51.166;10.322;2022-09-28T04:33:39;95265.88;;;6.41;80.93
26865;BME280;40618;51.166;10.322;2022-09-28T04:36:05;95266.69;;;6.42;80.83
26865;BME280;40618;51.166;10.322;2022-09-28T04:38:31;95268.13;;;6.48;81.13
26865;BME280;40618;51.166;10.322;2022-09-28T04:40:57;95270.63;;;6.49;80.96
26865;BME280;40618;51.166;10.322;2022-09-28T04:43:23;95267.94;;;6.52;81.18
26865;BME280;40618;51.166;10.322;2022-09-28T04:45:48;95263.59;;;6.53;80.95
26865;BME280;40618;51.166;10.322;2022-09-28T04:48:14;95258.47;;;6.53;81.63
26865;BME280;40618;51.166;10.322;2022-09-28T04:50:39;95262.72;;;6.54;81.01
26865;BME280;40618;51.166;10.322;2022-09-28T04:53:05;95254.13;;;6.53;80.73
26865;BME280;40618;51.166;10.322;2022-09-28T04:55:30;95255.72;;;6.56;81.63
26865;BME280;40618;51.166;10.322;2022-09-28T04:58:00;95253.25;;;6.54;81.31
26865;BME280;40618;51.166;10.322;2022-09-28T05:00:29;95256.66;;;6.55;81.29
26865;BME280;40618;51.166;10.322;2022-09-28T05:02:57;95260.06;;;6.55;80.93
26865;BME280;40618;51.166;10.322;2022-09-28T05:05:22;95255.00;;;6.54;80.93
26865;BME280;40618;51.166;10.322;2022-09-28T05:07:48;95259.38;;;6.52;81.16
26865;BME280;40618;51.166;10.322;2022-09-28T05:10:14;95250.81;;;6.51;81.51
26865;BME280;40618;51.166;10.322;2022-09-28T05:12:40;95246.66;;;6.49;81.47
26865;BME280;40618;51.166;10.322;2022-09-28T05:15:05;95253.03;;;6.41;81.05
26865;BME280;40618;51.166;10.322;2022-09-28T05:17:31;95250.53;;;6.40;81.30
26865;BME280;40618;51.166;10.322;2022-09-28T05:19:57;95257.31;;;6.41;81.03
26865;BME280;40618;51.166;10.322;2022-09-28T05:22:23;95253.03;;;6.41;81.05
26865;BME280;40618;51.166;10.322;2022-09-28T05:24:48;95245.31;;;6.41;81.23
26865;BME280;40618;51.166;10.322;2022-09-28T05:27:14;95247.03;;;6.41;81.59
26865;BME280;40618;51.166;10.322;2022-09-28T05:29:40;95244.47;;;6.41;81.49
26865;BME280;40618;51.166;10.322;2022-09-28T05:32:05;95248.69;;;6.42;81.40
26865;BME280;40618;51.166;10.322;2022-09-28T05:34:31;95246.22;;;6.40;81.39
26865;BME280;40618;51.166;10.322;2022-09-28T05:36:56;95251.44;;;6.39;81.43
26865;BME280;40618;51.166;10.322;2022-09-28T05:39:22;95246.38;;;6.37;81.56
26865;BME280;40618;51.166;10.322;2022-09-28T05:41:48;95251.50;;;6.37;81.47
26865;BME280;40618;51.166;10.322;2022-09-28T05:44:13;95250.53;;;6.40;81.66
26865;BME280;40618;51.166;10.322;2022-09-28T05:46:39;95252.19;;;6.41;81.59
26865;BME280;40618;51.166;10.322;2022-09-28T05:49:04;95253.09;;;6.40;81.13
26865;BME280;40618;51.166;10.322;2022-09-28T05:51:30;95253.09;;;6.40;81.27
26865;BME280;40618;51.166;10.322;2022-09-28T05:53:56;95249.59;;;6.41;81.50
26865;BME280;40618;51.166;10.322;2022-09-28T05:56:22;95257.31;;;6.41;81.29
26865;BME280;40618;51.166;10.322;2022-09-28T05:58:47;95250.38;;;6.43;81.33
26865;BME280;40618;51.166;10.322;2022-09-28T06:01:13;95249.47;;;6.44;81.93
26865;BME280;40618;51.166;10.322;2022-09-28T06:03:38;95255.19;;;6.49;81.66
26865;BME280;40618;51.166;10.322;2022-09-28T06:06:04;95253.31;;;6.53;81.55
26865;BME280;40618;51.166;10.322;2022-09-28T06:08:31;95251.56;;;6.53;81.23
26865;BME280;40618;51.166;10.322;2022-09-28T06:11:00;95251.38;;;6.58;81.74
26865;BME280;40618;51.166;10.322;2022-09-28T06:13:27;95253.03;;;6.59;82.00
26865;BME280;40618;51.166;10.322;2022-09-28T06:15:53;95256.50;;;6.58;81.58
26865;BME280;40618;51.166;10.322;2022-09-28T06:18:19;95257.41;;;6.57;81.38
26865;BME280;40618;51.166;10.322;2022-09-28T06:20:44;95253.09;;;6.57;81.88
26865;BME280;40618;51.166;10.322;2022-09-28T06:23:11;95244.25;;;6.63;81.88
26865;BME280;40618;51.166;10.322;2022-09-28T06:25:38;95252.78;;;6.64;81.27
26865;BME280;40618;51.166;10.322;2022-09-28T06:28:11;95249.31;;;6.65;81.54
26865;BME280;40618;51.166;10.322;2022-09-28T06:30:39;95254.53;;;6.63;81.95
26865;BME280;40618;51.166;10.322;2022-09-28T06:33:08;95254.47;;;6.65;81.49
26865;BME280;40618;51.166;10.322;2022-09-28T06:35:35;95256.19;;;6.64;81.74
26865;BME280;40618;51.166;10.322;2022-09-28T06:38:01;95257.84;;;6.65;81.84
26865;BME280;40618;51.166;10.322;2022-09-28T06:40:27;95263.84;;;6.66;81.83
26865;BME280;40618;51.166;10.322;2022-09-28T06:43:13;95265.41;;;6.68;81.71
26865;BME280;40618;51.166;10.322;2022-09-28T06:45:40;95268.66;;;6.72;81.68
26865;BME280;40618;51.166;10.322;2022-09-28T06:48:07;95274.06;;;6.67;81.83
26865;BME280;40618;51.166;10.322;2022-09-28T06:50:37;95279.13;;;6.69;81.73
26865;BME280;40618;51.166;10.322;2022-09-28T06:53:06;95280.91;;;6.67;81.76
26865;BME280;40618;51.166;10.322;2022-09-28T06:55:33;95289.69;;;6.63;81.45
26865;BME280;40618;51.166;10.322;2022-09-28T06:58:04;95295.00;;;6.59;81.44
26865;BME280;40618;51.166;10.322;2022-09-28T07:00:34;95286.00;;;6.51;81.20
26865;BME280;40618;51.166;10.322;2022-09-28T07:03:01;95296.56;;;6.44;81.52
26865;BME280;40618;51.166;10.322;2022-09-28T07:05:28;95295.69;;;6.46;81.20
26865;BME280;40618;51.166;10.322;2022-09-28T07:07:56;95289.69;;;6.45;81.62
26865;BME280;40618;51.166;10.322;2022-09-28T07:10:22;95291.16;;;6.51;81.67
26865;BME280;40618;51.166;10.322;2022-09-28T07:12:51;95300.38;;;6.55;81.51
26865;BME280;40618;51.166;10.322;2022-09-28T07:15:17;95297.03;;;6.53;81.34
26865;BME280;40618;51.166;10.322;2022-09-28T07:17:44;95298.69;;;6.54;81.38
26865;BME280;40618;51.166;10.322;2022-09-28T07:20:10;95303.84;;;6.54;81.25
26865;BME280;40618;51.166;10.322;2022-09-28T07:22:36;95301.72;;;6.44;80.99
26865;BME280;40618;51.166;10.322;2022-09-28T07:25:04;95308.59;;;6.44;81.08
26865;BME280;40618;51.166;10.322;2022-09-28T07:27:31;95314.41;;;6.48;81.43
26865;BME280;40618;51.166;10.322;2022-09-28T07:29:58;95323.63;;;6.52;81.16
26865;BME280;40618;51.166;10.322;2022-09-28T07:32:24;95326.84;;;6.57;81.34
26865;BME280;40618;51.166;10.322;2022-09-28T07:34:51;95329.31;;;6.58;81.16
26865;BME280;40618;51.166;10.322;2022-09-28T07:37:18;95330.31;;;6.56;80.96
26865;BME280;40618;51.166;10.322;2022-09-28T07:39:44;95338.78;;;6.58;81.03
26865;BME280;40618;51.166;10.322;2022-09-28T07:42:29;95338.47;;;6.64;80.70
26865;BME280;40618;51.166;10.322;2022-09-28T07:44:56;95340.16;;;6.65;81.66
26865;BME280;40618;51.166;10.322;2022-09-28T07:47:22;95335.84;;;6.66;81.00
26865;BME280;40618;51.166;10.322;2022-09-28T07:49:54;95335.91;;;6.64;80.79
26865;BME280;40618;51.166;10.322;2022-09-28T07:52:24;95339.41;;;6.63;81.13
26865;BME280;40618;51.166;10.322;2022-09-28T07:54:52;95333.41;;;6.63;81.36
26865;BME280;40618;51.166;10.322;2022-09-28T07:57:22;95334.09;;;6.66;81.43
26865;BME280;40618;51.166;10.322;2022-09-28T07:59:49;95350.91;;;6.73;81.02
26865;BME280;40618;51.166;10.322;2022-09-28T08:02:17;95350.75;;;6.76;80.83
26865;BME280;40618;51.166;10.322;2022-09-28T08:04:45;95355.69;;;6.81;81.11
26865;BME280;40618;51.166;10.322;2022-09-28T08:07:12;95358.47;;;6.76;80.73
26865;BME280;40618;51.166;10.322;2022-09-28T08:09:40;95363.75;;;6.73;80.80
26865;BME280;40618;51.166;10.322;2022-09-28T08:12:06;95368.28;;;6.68;80.80
26865;BME280;40618;51.166;10.322;2022-09-28T08:14:32;95370.09;;;6.66;80.84
26865;BME280;40618;51.166;10.322;2022-09-28T08:17:02;95381.28;;;6.65;80.86
26865;BME280;40618;51.166;10.322;2022-09-28T08:19:29;95374.19;;;6.70;81.17
26865;BME280;40618;51.166;10.322;2022-09-28T08:22:13;95380.78;;;6.76;81.25
26865;BME280;40618;51.166;10.322;2022-09-28T08:24:39;95385.84;;;6.77;81.02
26865;BME280;40618;51.166;10.322;2022-09-28T08:27:05;95395.41;;;6.75;80.98
26865;BME280;40618;51.166;10.322;2022-09-28T08:29:31;95400.63;;;6.74;81.20
26865;BME280;40618;51.166;10.322;2022-09-28T08:31:57;95395.81;;;6.66;80.40
26865;BME280;40618;51.166;10.322;2022-09-28T08:34:26;95404.53;;;6.64;81.07
26865;BME280;40618;51.166;10.322;2022-09-28T08:36:52;95411.88;;;6.71;80.68
26865;BME280;40618;51.166;10.322;2022-09-28T08:39:20;95421.88;;;6.77;81.07
26865;BME280;40618;51.166;10.322;2022-09-28T08:41:52;95418.09;;;6.85;81.19
26865;BME280;40618;51.166;10.322;2022-09-28T08:44:40;95418.69;;;6.90;80.98
26865;BME280;40618;51.166;10.322;2022-09-28T08:47:19;95424.69;;;6.90;80.99
26865;BME280;40618;51.166;10.322;2022-09-28T08:50:15;95418.63;;;6.91;81.09
26865;BME280;40618;51.166;10.322;2022-09-28T08:52:47;95427.31;;;6.89;80.68
26865;BME280;40618;51.166;10.322;2022-09-28T08:58:19;95431.44;;;6.93;80.76
26865;BME280;40618;51.166;10.322;2022-09-28T09:00:50;95427.03;;;6.95;80.68
26865;BME280;40618;51.166;10.322;2022-09-28T09:03:19;95430.44;;;6.95;80.90
26865;BME280;40618;51.166;10.322;2022-09-28T09:08:58;95439.59;;;7.19;81.26
26865;BME280;40618;51.166;10.322;2022-09-28T09:23:09;95448.31;;;7.16;79.64
26865;BME280;40618;51.166;10.322;2022-09-28T09:25:41;95441.66;;;7.12;79.86
26865;BME280;40618;51.166;10.322;2022-09-28T09:28:33;95448.63;;;7.10;80.22
26865;BME280;40618;51.166;10.322;2022-09-28T09:31:46;95457.94;;;7.13;79.75
26865;BME280;40618;51.166;10.322;2022-09-28T09:34:19;95456.19;;;7.13;80.09
26865;BME280;40618;51.166;10.322;2022-09-28T09:45:56;95469.16;;;7.29;79.92
26865;BME280;40618;51.166;10.322;2022-09-28T09:51:36;95467.56;;;7.44;79.46
26865;BME280;40618;51.166;10.322;2022-09-28T09:54:15;95469.91;;;7.49;79.37
26865;BME280;40618;51.166;10.322;2022-09-28T09:57:23;95466.72;;;7.61;79.68
26865;BME280;40618;51.166;10.322;2022-09-28T10:00:09;95474.53;;;7.59;79.24
26865;BME280;40618;51.166;10.322;2022-09-28T10:02:38;95471.78;;;7.62;79.48
26865;BME280;40618;51.166;10.322;2022-09-28T10:10:38;95473.25;;;7.68;79.59
26865;BME280;40618;51.166;10.322;2022-09-28T10:13:13;95478.09;;;7.57;79.18
26865;BME280;40618;51.166;10.322;2022-09-28T10:15:40;95477.19;;;7.58;79.66
26865;BME280;40618;51.166;10.322;2022-09-28T10:18:12;95480.75;;;7.55;79.55
26865;BME280;40618;51.166;10.322;2022-09-28T10:20:42;95478.94;;;7.57;79.64
26865;BME280;40618;51.166;10.322;2022-09-28T10:23:26;95477.78;;;7.63;79.65
26865;BME280;40618;51.166;10.322;2022-09-28T10:26:07;95475.13;;;7.65;79.53
26865;BME280;40618;51.166;10.322;2022-09-28T10:28:49;95475.97;;;7.65;79.41
26865;BME280;40618;51.166;10.322;2022-09-28T10:31:35;95483.69;;;7.65;78.74
26865;BME280;40618;51.166;10.322;2022-09-28T10:34:02;95480.97;;;7.68;79.13
26865;BME280;40618;51.166;10.322;2022-09-28T10:36:30;95485.06;;;7.72;79.43
26865;BME280;40618;51.166;10.322;2022-09-28T10:39:03;95480.41;;;7.79;79.30
26865;BME280;40618;51.166;10.322;2022-09-28T10:41:30;95483.84;;;7.79;79.09
26865;BME280;40618;51.166;10.322;2022-09-28T10:44:00;95489.66;;;7.83;78.57
26865;BME280;40618;51.166;10.322;2022-09-28T10:46:31;95493.69;;;7.89;78.34
26865;BME280;40618;51.166;10.322;2022-09-28T10:49:06;95495.41;;;7.88;78.71
26865;BME280;40618;51.166;10.322;2022-09-28T10:51:52;95502.16;;;7.91;78.10
26865;BME280;40618;51.166;10.322;2022-09-28T10:56:47;95510.03;;;8.05;78.72
26865;BME280;40618;51.166;10.322;2022-09-28T10:59:35;95505.84;;;8.03;78.67
26865;BME280;40618;51.166;10.322;2022-09-28T11:02:05;95511.19;;;8.00;78.34
26865;BME280;40618;51.166;10.322;2022-09-28T11:04:41;95510.75;;;7.91;78.01
26865;BME280;40618;51.166;10.322;2022-09-28T11:07:19;95504.81;;;7.89;78.06
26865;BME280;40618;51.166;10.322;2022-09-28T11:09:49;95509.81;;;7.92;78.01
26865;BME280;40618;51.166;10.322;2022-09-28T11:12:21;95514.13;;;7.92;78.46
26865;BME280;40618;51.166;10.322;2022-09-28T11:14:59;95518.84;;;7.84;78.16
26865;BME280;40618;51.166;10.322;2022-09-28T11:22:57;95524.53;;;7.73;78.01
26865;BME280;40618;51.166;10.322;2022-09-28T11:25:28;95519.81;;;7.63;77.35
26865;BME280;40618;51.166;10.322;2022-09-28T11:27:58;95525.06;;;7.62;77.83
26865;BME280;40618;51.166;10.322;2022-09-28T11:30:32;95531.97;;;7.61;77.91
26865;BME280;40618;51.166;10.322;2022-09-28T11:33:13;95542.25;;;7.61;77.40
26865;BME280;40618;51.166;10.322;2022-09-28T11:35:57;95544.38;;;7.53;77.38
26865;BME280;40618;51.166;10.322;2022-09-28T11:41:31;95547.59;;;7.39;77.76
26865;BME280;40618;51.166;10.322;2022-09-28T11:50:00;95543.34;;;7.21;78.19
26865;BME280;40618;51.166;10.322;2022-09-28T11:52:54;95538.03;;;7.24;78.11
26865;BME280;40618;51.166;10.322;2022-09-28T11:55:43;95529.88;;;7.33;78.91
26865;BME280;40618;51.166;10.322;2022-09-28T11:58:21;95538.81;;;7.43;79.06
26865;BME280;40618;51.166;10.322;2022-09-28T12:00:55;95543.69;;;7.50;79.00
26865;BME280;40618;51.166;10.322;2022-09-28T12:04:03;95538.69;;;7.47;78.43
26865;BME280;40618;51.166;10.322;2022-09-28T12:06:55;95536.59;;;7.55;79.01
26865;BME280;40618;51.166;10.322;2022-09-28T12:09:33;95539.00;;;7.58;78.52
26865;BME280;40618;51.166;10.322;2022-09-28T12:12:17;95533.75;;;7.59;78.34
26865;BME280;40618;51.166;10.322;2022-09-28T12:15:18;95536.34;;;7.59;78.35
26865;BME280;40618;51.166;10.322;2022-09-28T12:17:48;95538.56;;;7.67;78.34
26865;BME280;40618;51.166;10.322;2022-09-28T12:20:44;95536.28;;;7.78;78.94
26865;BME280;40618;51.166;10.322;2022-09-28T12:23:21;95534.47;;;7.81;78.34
26865;BME280;40618;51.166;10.322;2022-09-28T12:25:58;95530.22;;;7.79;78.29
26865;BME280;40618;51.166;10.322;2022-09-28T12:28:38;95530.81;;;7.85;78.16
26865;BME280;40618;51.166;10.322;2022-09-28T12:31:20;95531.84;;;7.98;79.09
26865;BME280;40618;51.166;10.322;2022-09-28T12:33:51;95531.00;;;8.15;79.10
26865;BME280;40618;51.166;10.322;2022-09-28T12:54:12;95563.00;;;7.93;78.37
26865;BME280;40618;51.166;10.322;2022-09-28T12:59:38;95562.78;;;7.63;78.32
26865;BME280;40618;51.166;10.322;2022-09-28T13:08:29;95573.66;;;7.33;79.05
26865;BME280;40618;51.166;10.322;2022-09-28T13:11:17;95574.72;;;7.29;78.64
26865;BME280;40618;51.166;10.322;2022-09-28T13:23:22;95577.09;;;7.51;79.01
26865;BME280;40618;51.166;10.322;2022-09-28T13:26:06;95569.09;;;7.57;79.48
26865;BME280;40618;51.166;10.322;2022-09-28T13:29:01;95567.16;;;7.61;79.18
26865;BME280;40618;51.166;10.322;2022-09-28T13:31:32;95558.69;;;7.59;78.77
26865;BME280;40618;51.166;10.322;2022-09-28T13:34:01;95555.88;;;7.63;78.77
26865;BME280;40618;51.166;10.322;2022-09-28T13:38:54;95553.09;;;7.68;79.48
26865;BME280;40618;51.166;10.322;2022-09-28T13:41:28;95565.91;;;7.70;79.01
26865;BME280;40618;51.166;10.322;2022-09-28T13:50:14;95572.09;;;7.83;79.60
26865;BME280;40618;51.166;10.322;2022-09-28T13:52:57;95568.88;;;7.79;79.16
26865;BME280;40618;51.166;10.322;2022-09-28T14:01:18;95573.31;;;7.93;79.02
26865;BME280;40618;51.166;10.322;2022-09-28T14:04:19;95576.19;;;8.05;79.53
26865;BME280;40618;51.166;10.322;2022-09-28T14:10:13;95588.38;;;8.19;78.82
26865;BME280;40618;51.166;10.322;2022-09-28T14:12:50;95584.00;;;8.21;78.60
26865;BME280;40618;51.166;10.322;2022-09-28T14:18:09;95585.53;;;8.07;78.46
26865;BME280;40618;51.166;10.322;2022-09-28T14:21:02;95587.13;;;8.10;79.23
26865;BME280;40618;51.166;10.322;2022-09-28T14:30:34;95598.25;;;8.28;78.70
26865;BME280;40618;51.166;10.322;2022-09-28T14:32:55;95596.44;;;8.30;78.40
26865;BME280;40618;51.166;10.322;2022-09-28T14:35:38;95593.78;;;8.32;78.73
26865;BME280;40618;51.166;10.322;2022-09-28T14:38:13;95593.94;;;8.28;78.07
26865;BME280;40618;51.166;10.322;2022-09-28T14:44:22;95604.88;;;8.16;78.15
26865;BME280;40618;51.166;10.322;2022-09-28T14:46:45;95610.22;;;8.11;78.33
26865;BME280;40618;51.166;10.322;2022-09-28T14:54:16;95624.63;;;7.98;78.57
26865;BME280;40618;51.166;10.322;2022-09-28T14:59:19;95618.44;;;7.85;78.71
26865;BME280;40618;51.166;10.322;2022-09-28T15:01:54;95619.34;;;7.84;79.21
26865;BME280;40618;51.166;10.322;2022-09-28T15:04:28;95616.69;;;7.85;78.68
26865;BME280;40618;51.166;10.322;2022-09-28T15:06:55;95620.06;;;7.86;78.59
26865;BME280;40618;51.166;10.322;2022-09-28T15:09:33;95612.34;;;7.86;78.94
26865;BME280;40618;51.166;10.322;2022-09-28T15:12:13;95604.69;;;7.84;78.81
26865;BME280;40618;51.166;10.322;2022-09-28T15:14:45;95605.56;;;7.85;78.77
26865;BME280;40618;51.166;10.322;2022-09-28T15:17:19;95601.13;;;7.87;79.32
26865;BME280;40618;51.166;10.322;2022-09-28T15:22:30;95602.28;;;7.99;78.80
26865;BME280;40618;51.166;10.322;2022-09-28T15:25:02;95608.25;;;7.99;78.83
26865;BME280;40618;51.166;10.322;2022-09-28T15:27:36;95611.63;;;8.01;78.82
26865;BME280;40618;51.166;10.322;2022-09-28T15:30:22;95609.16;;;7.98;78.57
26865;BME280;40618;51.166;10.322;2022-09-28T15:32:55;95616.78;;;8.01;78.99
26865;BME280;40618;51.166;10.322;2022-09-28T15:38:15;95624.47;;;8.19;78.90
26865;BME280;40618;51.166;10.322;2022-09-28T15:40:42;95619.03;;;8.25;79.32
26865;BME280;40618;51.166;10.322;2022-09-28T15:48:31;95642.00;;;8.29;78.97
26865;BME280;40618;51.166;10.322;2022-09-28T15:51:11;95642.84;;;8.30;78.08
26865;BME280;40618;51.166;10.322;2022-09-28T15:56:07;95646.31;;;8.29;78.51
26865;BME280;40618;51.166;10.322;2022-09-28T15:58:35;95641.00;;;8.32;79.00
26865;BME280;40618;51.166;10.322;2022-09-28T16:01:30;95641.84;;;8.33;78.49
26865;BME280;40618;51.166;10.322;2022-09-28T16:04:34;95643.22;;;8.40;79.17
26865;BME280;40618;51.166;10.322;2022-09-28T16:07:15;95644.69;;;8.45;79.23